Jump to content

PR-CBB Bell 407 Desaparecido


B737-8HX

Recommended Posts

Recebi através de um grupo no WhatsApp a informação do desaparecimento de um Bell 407 decolado de Congonhas para Americana.

 

Comandante + 5 pax a bordo.

 

Aeronave pertencente à Cacau Show.

 

Alguém tem mais informações?

Link to comment
Share on other sites

Um helicóptero está desaparecido em São Paulo desde a manhã deste domingo (2). Equipes do Corpo de Bombeiros, do grupamento Aéreo da Polícia Militar e da Força Aérea Brasileira (FAB) fazem buscas pela aeronave.


Em nota, a FAB informou que o helicóptero desaparecido é uma aeronave modelo Bell 407 e que decolou de São Paulo às 7h56 com destino a Americana (SP).


Uma aeronave da FAB, modelo SC-105, deve reforçar as buscas na madrugada desta segunda-feira (27). Segundo os bombeiros, a ação está concentrada nas proximidades do quilômetro 30 da Rodovia dos Bandeirantes.


A FAB não informou a quantidade de tripulação e de possíveis passageiros da aeronave desaparecida.



http://g1.globo.com/sao-paulo/noticia/2016/06/helicoptero-esta-desaparecido-em-sp.html


Link to comment
Share on other sites

Recebi pelo whatsapp que a aeronave seria do dono da Bandeirantes e que, a comandante era ex-comissária na Gol

Link to comment
Share on other sites

MATRÍCULA: PRCBB

Proprietário:
SAFRA LEASING S.A ARRENDAMENTO MERCANTIL
CPF/CGC:
62063177000194
Operador:
ALE COSTA NEGOCIOS E PARTICIPACOES LTDA
CPF/CGC:
13083219000143
Fabricante:
BELL HELICOPTER
Modelo:
407
Número de Série:
53926
Tipo ICAO :
B407
Tipo de Habilitação para Pilotos:
HMNT
Classe da Aeronave:
HELICOPTERO 1 MOTOR TURBOEIXO
Peso Máximo de Decolagem:
2268 - Kg
Número Máximo de Passageiros:
006
bgPontilhado.gif
Categoria de Registro:
PRIVADA SERVICO AEREO PRIVADOS
Número dos Certificados (CM - CA):
18758
Situação no RAB:
ARRENDAMENTO MERCANTIL
Data da Compra/Transferência:
bgPontilhado.gif
Data de Validade do CA:
18/03/22
Data de Validade da IAM:
180317
Situação de Aeronavegabilidade:
Normal
Motivo(s):

 

Consulta realizada em: 27/06/2016 10:04:48
Link to comment
Share on other sites

Meus prezados

Helicóptero desaparece após decolar de São Paulo em direção a Americana

Uma piloto e cinco passageiros — entre os quais Geraldo Vágner de Oliveira, sócio do deputado federal Celso Russomanno — estavam a bordo da aeronave

Um helicóptero com cinco passageiros e uma piloto desapareceu na manhã deste domingo (26) na região de Perus, zona norte de São Paulo. A aeronave, um Bell 407, decolou do aeroporto de Congonhas às 08h57 e emitiu o último sinal de radar às 11h06 da manhã.

Estavam no helicóptero o empresário Geraldo Vágner de Oliveira, sócio do deputado federal Celso Russomanno, Osmar Marchini, Vágner Lanzoti e Francisco Rebolo. Os nomes do quinto passageiro e da piloto não foram informados.

O helicóptero tinha decolado de São Paulo com destino a Americana (SP).

O desaparecimento foi relatado a Salvaero (Busca e Salvamento Aeronáutico), da Aeronáutica, em Curitiba, pelo marido da piloto.

Um helicóptero Àguia sobrevoou o local à procura da aeronave.

A FAB (Força Aérea Brasileira) informou que irá iniciar as buscas com um avião SC105 Amazonas a partir das 6h da manhã desta segunda-feira (27).

Fonte: R7 via CECOMSAER 27 JUN 2016

Link to comment
Share on other sites

Helicóptero foi localizado infelizmente não há sobreviventes.

 

Pelas fotos que recebi via whatsapp, não da nem pra identificar que se tratava de um helicóptero.

Link to comment
Share on other sites

Infelizmente o ultimo plote de radar foi ontem 11:06 da manhã, não tardou muito para que se acionasse o SAR, mas nossa querida FAB "Asas de um povo soberano" deslocou uma aeronave de busca e resgate para a localidade somente nesta manhã ou seja, praticamente 18 horas apos o acidente!!!
Isso que o fato ocorreu dentro da TMA mais movimentada do Brasil; e ai eu pergunto; E se tivesse tido sobreviventes feridos?

Simplesmente uma vergonha!!!

Link to comment
Share on other sites

Infelizmente o ultimo plote de radar foi ontem 11:06 da manhã, não tardou muito para que se acionasse o SAR, mas nossa querida FAB "Asas de um povo soberano" deslocou uma aeronave de busca e resgate para a localidade somente nesta manhã ou seja, praticamente 18 horas apos o acidente!!!

Isso que o fato ocorreu dentro da TMA mais movimentada do Brasil; e ai eu pergunto; E se tivesse tido sobreviventes feridos?

Simplesmente uma vergonha!!!

 

Pelo que eu li, quem acionou o SAR foi o marido e no período da noite, melhor guardar as pedras até surgirem maiores informações.

Link to comment
Share on other sites

 

Pelo que eu li, quem acionou o SAR foi o marido e no período da noite, melhor guardar as pedras até surgirem maiores informações.

Mais um motivo, se não fosse o marido da colega aviadora!!!

Link to comment
Share on other sites

Alguém sabe dizer se o 407 possui CVR?

 

Infelizmente o item não é obrigatório para a aviação geral .

Link to comment
Share on other sites

SBJD METAR 26/06/2016 10:00 METAR SBJD 261000Z 13007KT 4000 BR FEW010 10/09 Q1026=
SBJD SPECI 26/06/2016 10:00 SPECI SBJD 261045Z 12011KT 3000 BR BKN010 11/09 Q1027=
SBJD METAR 26/06/2016 11:00 METAR SBJD 261100Z 12010KT 3000 BR BKN010 11/10 Q1027=
SBJD METAR 26/06/2016 12:00 METAR SBJD 261200Z 12007KT 3500 BR SCT010 13/10 Q1028=
SBJD METAR 26/06/2016 13:00 METAR SBJD 261300Z 11006KT 070V150 5000 HZ FEW010 14/10 Q1028=
SBJD METAR 26/06/2016 14:00 METAR SBJD 261400Z 12008KT 090V150 9000 NSC 16/10 Q1028=
SBJD METAR 26/06/2016 15:00 METAR SBJD 261500Z 12007KT 070V180 9999 FEW015 17/11 Q1028=

 

 

As fotos publicada na reportagem abaixo, do G1, mostram como estavam as condições de visibilidade provavelmente na manhã do dia seguinte.
http://g1.globo.com/sao-paulo/sorocaba-jundiai/fotos/2016/06/helicoptero-que-caiu-proximo-jundiai-e-localizado-fotos.html#F2083762

http://g1.globo.com/sao-paulo/sorocaba-jundiai/fotos/2016/06/helicoptero-que-caiu-proximo-jundiai-e-localizado-fotos.html#F2083498

Link to comment
Share on other sites

Archived

This topic is now archived and is closed to further replies.

×
×
  • Create New...

Important Information

Saiba os termos, regras e políticas de privacidade